sensor_id;sensor_type;location;lat;lon;timestamp;pressure;altitude;pressure_sealevel;temperature;humidity
28628;BME280;15815;46.760;19.604;2023-07-31T00:01:03;99997.53;;;20.29;82.77
28628;BME280;15815;46.760;19.604;2023-07-31T00:03:28;99982.81;;;20.13;83.36
28628;BME280;15815;46.760;19.604;2023-07-31T00:05:54;99993.25;;;20.25;83.04
28628;BME280;15815;46.760;19.604;2023-07-31T00:08:20;99985.19;;;20.14;83.24
28628;BME280;15815;46.760;19.604;2023-07-31T00:10:46;100003.28;;;20.11;84.05
28628;BME280;15815;46.760;19.604;2023-07-31T00:13:11;99975.69;;;19.99;83.33
28628;BME280;15815;46.760;19.604;2023-07-31T00:15:37;99996.94;;;20.07;83.69
28628;BME280;15815;46.760;19.604;2023-07-31T00:18:03;99966.84;;;19.88;83.52
28628;BME280;15815;46.760;19.604;2023-07-31T00:20:28;99994.72;;;20.11;83.38
28628;BME280;15815;46.760;19.604;2023-07-31T00:22:54;99978.75;;;19.86;84.32
28628;BME280;15815;46.760;19.604;2023-07-31T00:25:19;99999.00;;;19.97;84.48
28628;BME280;15815;46.760;19.604;2023-07-31T00:27:44;99984.13;;;19.84;84.60
28628;BME280;15815;46.760;19.604;2023-07-31T00:30:10;100011.06;;;19.92;84.53
28628;BME280;15815;46.760;19.604;2023-07-31T00:32:36;99979.72;;;19.74;84.21
28628;BME280;15815;46.760;19.604;2023-07-31T00:35:01;99987.63;;;19.79;85.16
28628;BME280;15815;46.760;19.604;2023-07-31T00:37:27;99984.13;;;19.84;84.43
28628;BME280;15815;46.760;19.604;2023-07-31T00:39:52;99986.03;;;19.78;85.27
28628;BME280;15815;46.760;19.604;2023-07-31T00:42:18;99987.63;;;19.61;84.96
28628;BME280;15815;46.760;19.604;2023-07-31T00:44:43;99985.72;;;19.58;85.06
28628;BME280;15815;46.760;19.604;2023-07-31T00:47:09;99983.03;;;19.54;85.23
28628;BME280;15815;46.760;19.604;2023-07-31T00:49:34;99980.03;;;19.58;84.80
28628;BME280;15815;46.760;19.604;2023-07-31T00:52:02;99982.88;;;19.58;84.71
28628;BME280;15815;46.760;19.604;2023-07-31T00:54:28;99988.09;;;19.59;84.62
28628;BME280;15815;46.760;19.604;2023-07-31T00:56:54;99976.53;;;19.54;84.76
28628;BME280;15815;46.760;19.604;2023-07-31T00:59:21;99961.31;;;19.48;85.80
28628;BME280;15815;46.760;19.604;2023-07-31T01:01:47;99978.25;;;19.51;85.32
28628;BME280;15815;46.760;19.604;2023-07-31T01:04:13;99979.38;;;19.54;86.17
28628;BME280;15815;46.760;19.604;2023-07-31T01:06:43;99980.50;;;19.56;85.79
28628;BME280;15815;46.760;19.604;2023-07-31T01:12:03;99979.69;;;19.56;86.03
28628;BME280;15815;46.760;19.604;2023-07-31T01:14:29;99971.44;;;19.49;86.08
28628;BME280;15815;46.760;19.604;2023-07-31T01:16:56;99967.63;;;19.42;86.32
28628;BME280;15815;46.760;19.604;2023-07-31T01:19:23;99976.81;;;19.47;86.99
28628;BME280;15815;46.760;19.604;2023-07-31T01:27:17;99985.19;;;19.41;88.28
28628;BME280;15815;46.760;19.604;2023-07-31T01:30:11;99984.41;;;19.40;88.09
28628;BME280;15815;46.760;19.604;2023-07-31T01:32:47;99974.09;;;19.34;89.25
28628;BME280;15815;46.760;19.604;2023-07-31T01:35:14;99984.41;;;19.40;88.27
28628;BME280;15815;46.760;19.604;2023-07-31T01:37:40;99976.97;;;19.34;88.56
28628;BME280;15815;46.760;19.604;2023-07-31T01:40:06;99990.25;;;19.37;88.87
28628;BME280;15815;46.760;19.604;2023-07-31T01:42:32;99981.56;;;19.31;89.42
28628;BME280;15815;46.760;19.604;2023-07-31T01:44:57;99989.47;;;19.27;90.28
28628;BME280;15815;46.760;19.604;2023-07-31T01:47:23;99977.09;;;19.21;90.64
28628;BME280;15815;46.760;19.604;2023-07-31T01:49:48;99974.88;;;19.16;90.61
28628;BME280;15815;46.760;19.604;2023-07-31T01:52:14;99985.66;;;19.30;90.94
28628;BME280;15815;46.760;19.604;2023-07-31T01:54:39;99964.41;;;19.13;90.24
28628;BME280;15815;46.760;19.604;2023-07-31T01:57:05;99988.19;;;19.19;91.41
28628;BME280;15815;46.760;19.604;2023-07-31T01:59:30;99989.09;;;19.16;91.16
28628;BME280;15815;46.760;19.604;2023-07-31T02:01:56;99978.03;;;19.09;90.58
28628;BME280;15815;46.760;19.604;2023-07-31T02:04:21;99986.88;;;19.11;91.34
28628;BME280;15815;46.760;19.604;2023-07-31T02:06:47;99989.25;;;19.12;91.43
28628;BME280;15815;46.760;19.604;2023-07-31T02:09:15;99972.94;;;19.04;91.10
28628;BME280;15815;46.760;19.604;2023-07-31T02:11:41;99992.25;;;19.09;91.46
28628;BME280;15815;46.760;19.604;2023-07-31T02:14:07;99985.75;;;18.99;91.45
28628;BME280;15815;46.760;19.604;2023-07-31T02:16:36;99985.75;;;18.99;91.58
28628;BME280;15815;46.760;19.604;2023-07-31T02:19:01;99999.38;;;19.04;91.85
28628;BME280;15815;46.760;19.604;2023-07-31T02:21:27;100001.28;;;19.07;91.25
28628;BME280;15815;46.760;19.604;2023-07-31T02:23:52;100002.38;;;19.10;91.36
28628;BME280;15815;46.760;19.604;2023-07-31T02:26:18;100007.78;;;19.08;91.91
28628;BME280;15815;46.760;19.604;2023-07-31T02:28:43;100002.38;;;19.01;91.85
28628;BME280;15815;46.760;19.604;2023-07-31T02:31:09;99990.34;;;18.97;91.87
28628;BME280;15815;46.760;19.604;2023-07-31T02:33:34;99990.03;;;19.04;91.39
28628;BME280;15815;46.760;19.604;2023-07-31T02:36:00;99984.31;;;18.95;92.27
28628;BME280;15815;46.760;19.604;2023-07-31T02:38:25;99999.53;;;19.01;91.87
28628;BME280;15815;46.760;19.604;2023-07-31T02:40:51;99985.59;;;18.94;91.43
28628;BME280;15815;46.760;19.604;2023-07-31T02:43:16;99948.19;;;18.73;91.84
28628;BME280;15815;46.760;19.604;2023-07-31T02:45:42;99979.22;;;18.90;91.29
28628;BME280;15815;46.760;19.604;2023-07-31T02:48:07;99991.28;;;18.94;91.03
28628;BME280;15815;46.760;19.604;2023-07-31T02:50:35;99996.78;;;18.88;91.55
28628;BME280;15815;46.760;19.604;2023-07-31T02:53:00;99992.22;;;18.91;91.81
28628;BME280;15815;46.760;19.604;2023-07-31T02:55:26;99992.06;;;18.94;91.88
28628;BME280;15815;46.760;19.604;2023-07-31T02:57:51;99988.13;;;18.92;91.88
28628;BME280;15815;46.760;19.604;2023-07-31T03:00:17;99996.97;;;18.94;92.00
28628;BME280;15815;46.760;19.604;2023-07-31T03:02:42;99999.69;;;18.97;91.71
28628;BME280;15815;46.760;19.604;2023-07-31T03:05:08;100018.34;;;18.98;91.76
28628;BME280;15815;46.760;19.604;2023-07-31T03:07:33;100015.81;;;18.91;92.38
28628;BME280;15815;46.760;19.604;2023-07-31T03:09:59;100003.28;;;18.89;92.47
28628;BME280;15815;46.760;19.604;2023-07-31T03:12:29;100018.19;;;18.93;92.06
28628;BME280;15815;46.760;19.604;2023-07-31T03:14:54;100002.94;;;18.87;92.68
28628;BME280;15815;46.760;19.604;2023-07-31T03:17:20;100017.81;;;18.81;94.25
28628;BME280;15815;46.760;19.604;2023-07-31T03:19:45;100002.59;;;18.75;95.94
28628;BME280;15815;46.760;19.604;2023-07-31T03:22:10;99995.97;;;18.78;95.01
28628;BME280;15815;46.760;19.604;2023-07-31T03:24:36;100010.53;;;18.80;95.28
28628;BME280;15815;46.760;19.604;2023-07-31T03:27:02;100013.06;;;18.78;96.48
28628;BME280;15815;46.760;19.604;2023-07-31T03:29:28;100008.00;;;18.82;96.08
28628;BME280;15815;46.760;19.604;2023-07-31T03:31:53;100010.66;;;18.77;96.60
28628;BME280;15815;46.760;19.604;2023-07-31T03:34:18;100001.97;;;18.71;97.59
28628;BME280;15815;46.760;19.604;2023-07-31T03:36:44;100020.81;;;18.87;96.55
28628;BME280;15815;46.760;19.604;2023-07-31T03:39:10;100037.97;;;18.96;96.02
28628;BME280;15815;46.760;19.604;2023-07-31T03:41:35;100035.75;;;18.91;96.17
28628;BME280;15815;46.760;19.604;2023-07-31T03:44:02;100042.53;;;18.94;96.92
28628;BME280;15815;46.760;19.604;2023-07-31T03:46:27;100044.13;;;18.95;96.93
28628;BME280;15815;46.760;19.604;2023-07-31T03:48:53;100050.78;;;18.92;96.77
28628;BME280;15815;46.760;19.604;2023-07-31T03:51:18;100033.44;;;18.77;97.28
28628;BME280;15815;46.760;19.604;2023-07-31T03:53:44;100054.59;;;18.98;96.81
28628;BME280;15815;46.760;19.604;2023-07-31T03:56:11;100042.53;;;18.94;97.05
28628;BME280;15815;46.760;19.604;2023-07-31T03:58:37;100034.25;;;18.77;97.88
28628;BME280;15815;46.760;19.604;2023-07-31T04:01:03;100062.84;;;19.05;98.03
28628;BME280;15815;46.760;19.604;2023-07-31T04:03:29;100078.56;;;19.19;97.43
28628;BME280;15815;46.760;19.604;2023-07-31T04:05:55;100058.81;;;19.33;97.31
28628;BME280;15815;46.760;19.604;2023-07-31T04:08:21;100068.03;;;19.47;97.82
28628;BME280;15815;46.760;19.604;2023-07-31T04:10:47;100058.69;;;19.46;97.91
28628;BME280;15815;46.760;19.604;2023-07-31T04:13:12;100072.19;;;19.55;98.06
28628;BME280;15815;46.760;19.604;2023-07-31T04:15:38;100069.66;;;19.66;97.68
28628;BME280;15815;46.760;19.604;2023-07-31T04:18:04;100053.19;;;19.70;98.02
28628;BME280;15815;46.760;19.604;2023-07-31T04:20:30;100064.00;;;20.02;96.39
28628;BME280;15815;46.760;19.604;2023-07-31T04:22:59;100072.38;;;20.15;98.33
28628;BME280;15815;46.760;19.604;2023-07-31T04:25:25;100066.03;;;20.29;98.91
28628;BME280;15815;46.760;19.604;2023-07-31T04:27:50;100063.81;;;20.33;98.64
28628;BME280;15815;46.760;19.604;2023-07-31T04:30:16;100066.31;;;20.50;97.98
28628;BME280;15815;46.760;19.604;2023-07-31T04:32:41;100073.97;;;20.95;97.07
28628;BME280;15815;46.760;19.604;2023-07-31T04:35:07;100081.34;;;21.53;98.23
28628;BME280;15815;46.760;19.604;2023-07-31T04:37:33;100080.00;;;21.63;98.17
28628;BME280;15815;46.760;19.604;2023-07-31T04:39:59;100079.94;;;21.72;100.00
28628;BME280;15815;46.760;19.604;2023-07-31T04:42:25;100061.03;;;22.13;100.00
28628;BME280;15815;46.760;19.604;2023-07-31T04:44:52;100065.91;;;22.37;97.38
28628;BME280;15815;46.760;19.604;2023-07-31T04:47:19;100078.88;;;22.62;100.00
28628;BME280;15815;46.760;19.604;2023-07-31T04:49:44;100072.34;;;22.46;100.00
28628;BME280;15815;46.760;19.604;2023-07-31T04:52:11;100079.03;;;22.43;100.00
28628;BME280;15815;46.760;19.604;2023-07-31T04:54:36;100082.19;;;22.45;100.00
28628;BME280;15815;46.760;19.604;2023-07-31T04:57:02;100071.00;;;22.86;100.00
28628;BME280;15815;46.760;19.604;2023-07-31T04:59:31;100073.66;;;23.25;91.53
28628;BME280;15815;46.760;19.604;2023-07-31T05:01:56;100070.84;;;23.60;97.17
28628;BME280;15815;46.760;19.604;2023-07-31T05:04:22;100060.06;;;24.16;100.00
28628;BME280;15815;46.760;19.604;2023-07-31T05:06:47;100080.25;;;24.47;96.42
28628;BME280;15815;46.760;19.604;2023-07-31T05:09:13;100074.38;;;24.62;96.13
28628;BME280;15815;46.760;19.604;2023-07-31T05:11:38;100090.00;;;24.81;99.41
28628;BME280;15815;46.760;19.604;2023-07-31T05:14:04;100081.28;;;24.70;92.43
28628;BME280;15815;46.760;19.604;2023-07-31T05:16:29;100090.72;;;24.76;96.69
28628;BME280;15815;46.760;19.604;2023-07-31T05:18:55;100085.84;;;24.56;92.82
28628;BME280;15815;46.760;19.604;2023-07-31T05:21:20;100099.31;;;24.45;86.91
28628;BME280;15815;46.760;19.604;2023-07-31T05:23:46;100110.44;;;24.37;84.31
28628;BME280;15815;46.760;19.604;2023-07-31T05:26:11;100105.56;;;24.23;79.08
28628;BME280;15815;46.760;19.604;2023-07-31T05:28:37;100110.66;;;23.93;83.66
28628;BME280;15815;46.760;19.604;2023-07-31T05:31:04;100086.41;;;24.14;83.28
28628;BME280;15815;46.760;19.604;2023-07-31T05:33:30;100093.56;;;24.45;81.50
28628;BME280;15815;46.760;19.604;2023-07-31T05:35:55;100111.44;;;24.86;80.99
28628;BME280;15815;46.760;19.604;2023-07-31T05:38:21;100107.69;;;25.00;78.74
28628;BME280;15815;46.760;19.604;2023-07-31T05:40:46;100100.41;;;25.42;77.92
28628;BME280;15815;46.760;19.604;2023-07-31T05:43:15;100087.81;;;25.34;74.58
28628;BME280;15815;46.760;19.604;2023-07-31T05:45:42;100106.06;;;25.62;75.17
28628;BME280;15815;46.760;19.604;2023-07-31T05:48:07;100094.22;;;25.97;71.82
28628;BME280;15815;46.760;19.604;2023-07-31T05:50:32;100097.34;;;26.59;70.97
28628;BME280;15815;46.760;19.604;2023-07-31T05:52:58;100106.25;;;26.83;73.55
28628;BME280;15815;46.760;19.604;2023-07-31T05:55:24;100107.59;;;26.88;69.18
28628;BME280;15815;46.760;19.604;2023-07-31T05:57:50;100113.09;;;26.91;69.34
28628;BME280;15815;46.760;19.604;2023-07-31T06:00:15;100128.00;;;26.78;66.26
28628;BME280;15815;46.760;19.604;2023-07-31T06:02:41;100118.25;;;26.54;66.07
28628;BME280;15815;46.760;19.604;2023-07-31T06:05:07;100119.09;;;26.65;64.65
28628;BME280;15815;46.760;19.604;2023-07-31T06:07:32;100133.81;;;27.01;63.84
28628;BME280;15815;46.760;19.604;2023-07-31T06:09:58;100120.97;;;27.02;63.66
28628;BME280;15815;46.760;19.604;2023-07-31T06:12:23;100121.25;;;27.09;61.32
28628;BME280;15815;46.760;19.604;2023-07-31T06:14:49;100131.47;;;26.99;62.19
28628;BME280;15815;46.760;19.604;2023-07-31T06:17:14;100133.50;;;26.71;62.06
28628;BME280;15815;46.760;19.604;2023-07-31T06:19:40;100141.63;;;26.67;61.62
28628;BME280;15815;46.760;19.604;2023-07-31T06:22:05;100135.88;;;26.84;60.08
28628;BME280;15815;46.760;19.604;2023-07-31T06:24:31;100125.94;;;27.35;59.82
28628;BME280;15815;46.760;19.604;2023-07-31T06:26:56;100132.50;;;27.69;56.91
28628;BME280;15815;46.760;19.604;2023-07-31T06:29:22;100148.84;;;28.36;59.71
28628;BME280;15815;46.760;19.604;2023-07-31T06:31:47;100132.22;;;28.47;59.02
28628;BME280;15815;46.760;19.604;2023-07-31T06:34:13;100124.69;;;29.15;54.34
28628;BME280;15815;46.760;19.604;2023-07-31T06:36:38;100134.41;;;29.48;55.53
28628;BME280;15815;46.760;19.604;2023-07-31T06:39:04;100139.75;;;29.38;51.67
28628;BME280;15815;46.760;19.604;2023-07-31T06:41:29;100153.31;;;30.28;53.61
28628;BME280;15815;46.760;19.604;2023-07-31T06:43:54;100137.25;;;29.78;48.41
28628;BME280;15815;46.760;19.604;2023-07-31T06:46:20;100143.59;;;30.25;51.55
28628;BME280;15815;46.760;19.604;2023-07-31T06:48:45;100150.56;;;30.35;49.73
28628;BME280;15815;46.760;19.604;2023-07-31T06:51:11;100147.66;;;29.92;50.54
28628;BME280;15815;46.760;19.604;2023-07-31T06:53:36;100137.06;;;29.46;46.67
28628;BME280;15815;46.760;19.604;2023-07-31T06:56:02;100133.47;;;29.64;48.59
28628;BME280;15815;46.760;19.604;2023-07-31T06:58:27;100145.00;;;29.70;46.67
28628;BME280;15815;46.760;19.604;2023-07-31T07:00:53;100130.81;;;29.91;44.51
28628;BME280;15815;46.760;19.604;2023-07-31T07:03:18;100144.25;;;30.56;44.74
28628;BME280;15815;46.760;19.604;2023-07-31T07:05:44;100142.47;;;31.22;46.19
28628;BME280;15815;46.760;19.604;2023-07-31T07:08:09;100152.19;;;31.57;42.17
28628;BME280;15815;46.760;19.604;2023-07-31T07:10:35;100143.97;;;31.42;42.68
28628;BME280;15815;46.760;19.604;2023-07-31T07:13:00;100155.59;;;31.87;41.81
28628;BME280;15815;46.760;19.604;2023-07-31T07:15:26;100156.59;;;32.43;43.28
28628;BME280;15815;46.760;19.604;2023-07-31T07:17:51;100152.34;;;32.44;41.97
28628;BME280;15815;46.760;19.604;2023-07-31T07:20:17;100139.72;;;32.41;42.33
28628;BME280;15815;46.760;19.604;2023-07-31T07:22:42;100148.53;;;32.62;43.72
28628;BME280;15815;46.760;19.604;2023-07-31T07:25:08;100143.84;;;32.46;39.32
28628;BME280;15815;46.760;19.604;2023-07-31T07:27:34;100150.78;;;32.16;40.52
28628;BME280;15815;46.760;19.604;2023-07-31T07:29:59;100159.06;;;32.39;41.95
28628;BME280;15815;46.760;19.604;2023-07-31T07:32:25;100152.78;;;32.61;42.47
28628;BME280;15815;46.760;19.604;2023-07-31T07:34:51;100141.34;;;32.63;39.10
28628;BME280;15815;46.760;19.604;2023-07-31T07:37:16;100151.91;;;32.13;39.22
28628;BME280;15815;46.760;19.604;2023-07-31T07:39:42;100145.97;;;31.92;36.59
28628;BME280;15815;46.760;19.604;2023-07-31T07:42:07;100132.88;;;31.73;40.42
28628;BME280;15815;46.760;19.604;2023-07-31T07:44:33;100130.41;;;31.63;40.32
28628;BME280;15815;46.760;19.604;2023-07-31T07:46:58;100151.13;;;31.41;41.11
28628;BME280;15815;46.760;19.604;2023-07-31T07:49:24;100144.75;;;31.29;38.50
28628;BME280;15815;46.760;19.604;2023-07-31T07:51:49;100143.88;;;31.16;40.01
28628;BME280;15815;46.760;19.604;2023-07-31T07:54:15;100153.22;;;31.73;38.59
28628;BME280;15815;46.760;19.604;2023-07-31T07:56:41;100144.19;;;32.16;39.28
28628;BME280;15815;46.760;19.604;2023-07-31T07:59:06;100148.78;;;32.38;37.12
28628;BME280;15815;46.760;19.604;2023-07-31T08:01:32;100140.53;;;33.10;38.59
28628;BME280;15815;46.760;19.604;2023-07-31T08:03:57;100159.19;;;33.14;37.70
28628;BME280;15815;46.760;19.604;2023-07-31T08:06:23;100149.44;;;33.46;39.03
28628;BME280;15815;46.760;19.604;2023-07-31T08:08:48;100139.13;;;33.94;34.54
28628;BME280;15815;46.760;19.604;2023-07-31T08:11:14;100145.47;;;34.42;36.81
28628;BME280;15815;46.760;19.604;2023-07-31T08:13:39;100149.56;;;34.90;32.50
28628;BME280;15815;46.760;19.604;2023-07-31T08:16:07;100152.94;;;35.32;34.48
28628;BME280;15815;46.760;19.604;2023-07-31T08:18:32;100153.56;;;35.54;36.02
28628;BME280;15815;46.760;19.604;2023-07-31T08:21:01;100144.94;;;36.17;35.33
28628;BME280;15815;46.760;19.604;2023-07-31T08:23:27;100142.78;;;36.80;33.82
28628;BME280;15815;46.760;19.604;2023-07-31T08:25:54;100143.25;;;36.94;34.30
28628;BME280;15815;46.760;19.604;2023-07-31T08:28:20;100153.72;;;36.72;31.33
28628;BME280;15815;46.760;19.604;2023-07-31T08:30:45;100157.97;;;36.31;32.89
28628;BME280;15815;46.760;19.604;2023-07-31T08:33:11;100150.97;;;36.82;32.60
28628;BME280;15815;46.760;19.604;2023-07-31T08:35:36;100160.03;;;37.01;30.92
28628;BME280;15815;46.760;19.604;2023-07-31T08:38:02;100156.09;;;37.39;31.36
28628;BME280;15815;46.760;19.604;2023-07-31T08:40:28;100164.41;;;37.75;30.97
28628;BME280;15815;46.760;19.604;2023-07-31T08:42:55;100159.91;;;37.74;30.54
28628;BME280;15815;46.760;19.604;2023-07-31T08:45:21;100159.25;;;37.83;27.83
28628;BME280;15815;46.760;19.604;2023-07-31T08:47:48;100149.69;;;37.83;29.73
28628;BME280;15815;46.760;19.604;2023-07-31T08:50:16;100151.75;;;37.90;29.00
28628;BME280;15815;46.760;19.604;2023-07-31T08:52:43;100155.25;;;38.30;28.65
28628;BME280;15815;46.760;19.604;2023-07-31T08:55:08;100156.50;;;37.85;27.84
28628;BME280;15815;46.760;19.604;2023-07-31T08:57:35;100154.38;;;38.55;28.16
28628;BME280;15815;46.760;19.604;2023-07-31T09:00:03;100149.84;;;38.02;26.71
28628;BME280;15815;46.760;19.604;2023-07-31T09:05:18;100152.66;;;38.34;28.13
28628;BME280;15815;46.760;19.604;2023-07-31T09:07:47;100145.94;;;38.24;25.97
28628;BME280;15815;46.760;19.604;2023-07-31T09:10:13;100156.38;;;38.18;25.84
28628;BME280;15815;46.760;19.604;2023-07-31T09:12:39;100149.78;;;38.61;26.60
28628;BME280;15815;46.760;19.604;2023-07-31T09:15:05;100148.50;;;38.72;27.27
28628;BME280;15815;46.760;19.604;2023-07-31T09:17:33;100138.47;;;38.58;27.80
28628;BME280;15815;46.760;19.604;2023-07-31T09:22:41;100139.56;;;38.36;25.95
28628;BME280;15815;46.760;19.604;2023-07-31T09:25:14;100151.72;;;38.93;25.14
28628;BME280;15815;46.760;19.604;2023-07-31T09:30:17;100144.88;;;39.08;25.65
28628;BME280;15815;46.760;19.604;2023-07-31T09:32:44;100128.84;;;38.92;24.57
28628;BME280;15815;46.760;19.604;2023-07-31T09:35:29;100148.06;;;39.30;23.92
28628;BME280;15815;46.760;19.604;2023-07-31T09:38:00;100125.72;;;38.90;23.70
28628;BME280;15815;46.760;19.604;2023-07-31T09:40:33;100138.59;;;39.21;24.41
28628;BME280;15815;46.760;19.604;2023-07-31T09:43:28;100139.34;;;39.49;23.55
28628;BME280;15815;46.760;19.604;2023-07-31T09:45:55;100141.81;;;39.16;24.22
28628;BME280;15815;46.760;19.604;2023-07-31T09:48:23;100135.56;;;39.85;24.91
28628;BME280;15815;46.760;19.604;2023-07-31T09:50:53;100129.59;;;39.46;24.47
28628;BME280;15815;46.760;19.604;2023-07-31T09:53:18;100108.28;;;39.19;25.26
28628;BME280;15815;46.760;19.604;2023-07-31T09:55:44;100120.41;;;39.42;24.97
28628;BME280;15815;46.760;19.604;2023-07-31T09:58:10;100123.09;;;40.33;25.34
28628;BME280;15815;46.760;19.604;2023-07-31T10:00:39;100109.16;;;40.43;23.84
28628;BME280;15815;46.760;19.604;2023-07-31T10:03:07;100106.81;;;40.12;25.18
28628;BME280;15815;46.760;19.604;2023-07-31T10:05:45;100109.47;;;40.28;23.85
28628;BME280;15815;46.760;19.604;2023-07-31T10:08:15;100100.16;;;40.12;23.83
28628;BME280;15815;46.760;19.604;2023-07-31T10:10:43;100119.69;;;40.17;24.48
28628;BME280;15815;46.760;19.604;2023-07-31T10:13:13;100119.38;;;40.52;23.99
28628;BME280;15815;46.760;19.604;2023-07-31T10:15:39;100119.69;;;40.85;23.64
28628;BME280;15815;46.760;19.604;2023-07-31T10:18:08;100106.97;;;40.34;22.53
28628;BME280;15815;46.760;19.604;2023-07-31T10:20:34;100117.84;;;40.41;23.29
28628;BME280;15815;46.760;19.604;2023-07-31T10:23:00;100118.19;;;39.70;22.31
28628;BME280;15815;46.760;19.604;2023-07-31T10:25:29;100100.13;;;39.37;23.92
28628;BME280;15815;46.760;19.604;2023-07-31T10:27:57;100104.41;;;39.63;23.21
28628;BME280;15815;46.760;19.604;2023-07-31T10:30:26;100102.63;;;38.77;24.11
28628;BME280;15815;46.760;19.604;2023-07-31T10:32:53;100097.47;;;38.33;25.38
28628;BME280;15815;46.760;19.604;2023-07-31T10:35:20;100085.88;;;38.52;24.38
28628;BME280;15815;46.760;19.604;2023-07-31T10:37:45;100092.31;;;37.89;24.08
28628;BME280;15815;46.760;19.604;2023-07-31T10:40:27;100099.31;;;37.94;23.86
28628;BME280;15815;46.760;19.604;2023-07-31T10:42:53;100098.34;;;37.49;23.38
28628;BME280;15815;46.760;19.604;2023-07-31T10:45:35;100094.28;;;37.44;24.29
28628;BME280;15815;46.760;19.604;2023-07-31T10:48:13;100100.88;;;36.95;23.29
28628;BME280;15815;46.760;19.604;2023-07-31T10:50:46;100094.03;;;36.20;25.23
28628;BME280;15815;46.760;19.604;2023-07-31T10:53:25;100076.59;;;36.37;27.43
28628;BME280;15815;46.760;19.604;2023-07-31T10:55:51;100085.13;;;35.87;27.59
28628;BME280;15815;46.760;19.604;2023-07-31T10:58:19;100083.50;;;36.17;26.93
28628;BME280;15815;46.760;19.604;2023-07-31T11:00:45;100079.13;;;35.55;26.60
28628;BME280;15815;46.760;19.604;2023-07-31T11:03:16;100093.34;;;35.51;27.64
28628;BME280;15815;46.760;19.604;2023-07-31T11:05:51;100086.16;;;35.52;27.69
28628;BME280;15815;46.760;19.604;2023-07-31T11:10:43;100081.72;;;34.61;27.37
28628;BME280;15815;46.760;19.604;2023-07-31T11:13:09;100073.94;;;34.56;28.11
28628;BME280;15815;46.760;19.604;2023-07-31T11:15:35;100077.19;;;34.45;29.42
28628;BME280;15815;46.760;19.604;2023-07-31T11:18:01;100070.38;;;34.35;29.07
28628;BME280;15815;46.760;19.604;2023-07-31T11:20:29;100058.00;;;34.14;29.01
28628;BME280;15815;46.760;19.604;2023-07-31T11:22:58;100070.50;;;33.93;29.73
28628;BME280;15815;46.760;19.604;2023-07-31T11:25:24;100066.63;;;33.91;28.17
28628;BME280;15815;46.760;19.604;2023-07-31T11:27:49;100053.16;;;33.52;27.08
28628;BME280;15815;46.760;19.604;2023-07-31T11:30:15;100061.28;;;33.45;29.27
28628;BME280;15815;46.760;19.604;2023-07-31T11:32:43;100060.69;;;33.26;29.78
28628;BME280;15815;46.760;19.604;2023-07-31T11:35:12;100051.19;;;33.05;28.72
28628;BME280;15815;46.760;19.604;2023-07-31T11:37:42;100055.13;;;32.73;29.64
28628;BME280;15815;46.760;19.604;2023-07-31T11:40:09;100047.16;;;32.53;30.17
28628;BME280;15815;46.760;19.604;2023-07-31T11:42:36;100071.66;;;32.78;31.15
28628;BME280;15815;46.760;19.604;2023-07-31T11:45:05;100050.19;;;32.47;30.71
28628;BME280;15815;46.760;19.604;2023-07-31T11:47:35;100051.72;;;32.27;30.55
28628;BME280;15815;46.760;19.604;2023-07-31T11:50:02;100051.03;;;32.35;30.52
28628;BME280;15815;46.760;19.604;2023-07-31T11:52:30;100035.38;;;32.24;31.33
28628;BME280;15815;46.760;19.604;2023-07-31T11:55:00;100055.41;;;32.28;30.92
28628;BME280;15815;46.760;19.604;2023-07-31T11:57:26;100042.78;;;32.12;32.24
28628;BME280;15815;46.760;19.604;2023-07-31T11:59:53;100040.44;;;32.11;31.71
28628;BME280;15815;46.760;19.604;2023-07-31T12:02:19;100041.03;;;31.83;32.41
28628;BME280;15815;46.760;19.604;2023-07-31T12:04:45;100049.97;;;31.85;31.90
28628;BME280;15815;46.760;19.604;2023-07-31T12:07:11;100043.47;;;31.92;31.63
28628;BME280;15815;46.760;19.604;2023-07-31T12:09:37;100036.75;;;31.71;32.02
28628;BME280;15815;46.760;19.604;2023-07-31T12:12:08;100036.75;;;31.71;32.31
28628;BME280;15815;46.760;19.604;2023-07-31T12:14:33;100042.16;;;31.80;32.18
28628;BME280;15815;46.760;19.604;2023-07-31T12:17:01;100033.22;;;31.78;32.49
28628;BME280;15815;46.760;19.604;2023-07-31T12:19:32;100028.84;;;31.58;32.01
28628;BME280;15815;46.760;19.604;2023-07-31T12:21:58;100031.19;;;31.73;33.93
28628;BME280;15815;46.760;19.604;2023-07-31T12:24:25;100030.41;;;31.59;32.92
28628;BME280;15815;46.760;19.604;2023-07-31T12:26:53;100016.56;;;31.52;33.18
28628;BME280;15815;46.760;19.604;2023-07-31T12:29:18;100012.19;;;31.32;32.26
28628;BME280;15815;46.760;19.604;2023-07-31T12:31:43;100013.13;;;31.08;32.28
28628;BME280;15815;46.760;19.604;2023-07-31T12:34:17;100007.22;;;31.14;31.37
28628;BME280;15815;46.760;19.604;2023-07-31T12:36:46;100014.69;;;31.09;32.39
28628;BME280;15815;46.760;19.604;2023-07-31T12:39:12;100000.50;;;31.05;32.86
28628;BME280;15815;46.760;19.604;2023-07-31T12:41:38;100015.91;;;31.00;31.00
28628;BME280;15815;46.760;19.604;2023-07-31T12:44:03;100005.09;;;31.01;33.48
28628;BME280;15815;46.760;19.604;2023-07-31T12:46:29;100000.28;;;31.03;32.66
28628;BME280;15815;46.760;19.604;2023-07-31T12:48:54;100008.72;;;30.88;32.73
28628;BME280;15815;46.760;19.604;2023-07-31T12:51:20;100009.84;;;30.85;33.37
28628;BME280;15815;46.760;19.604;2023-07-31T12:53:47;99997.97;;;30.70;33.02
28628;BME280;15815;46.760;19.604;2023-07-31T12:56:12;99991.53;;;30.90;32.59
28628;BME280;15815;46.760;19.604;2023-07-31T12:58:38;99988.00;;;30.97;33.83